sensor_id;sensor_type;location;lat;lon;timestamp;P1;durP1;ratioP1;P2;durP2;ratioP2
74170;SDS011;62526;50.948;6.590;2022-07-29T00:02:09;5.60;;;2.08;;
74170;SDS011;62526;50.948;6.590;2022-07-29T00:04:36;7.25;;;2.08;;
74170;SDS011;62526;50.948;6.590;2022-07-29T00:07:03;6.78;;;1.92;;
74170;SDS011;62526;50.948;6.590;2022-07-29T00:09:30;10.52;;;2.28;;
74170;SDS011;62526;50.948;6.590;2022-07-29T00:11:56;8.55;;;1.92;;
74170;SDS011;62526;50.948;6.590;2022-07-29T00:14:23;4.80;;;2.08;;
74170;SDS011;62526;50.948;6.590;2022-07-29T00:16:50;4.85;;;2.20;;
74170;SDS011;62526;50.948;6.590;2022-07-29T00:19:18;4.57;;;2.15;;
74170;SDS011;62526;50.948;6.590;2022-07-29T00:21:44;6.12;;;1.90;;
74170;SDS011;62526;50.948;6.590;2022-07-29T00:24:11;6.15;;;2.30;;
74170;SDS011;62526;50.948;6.590;2022-07-29T00:26:38;7.47;;;2.20;;
74170;SDS011;62526;50.948;6.590;2022-07-29T00:29:04;9.05;;;2.72;;
74170;SDS011;62526;50.948;6.590;2022-07-29T00:31:31;5.87;;;2.17;;
74170;SDS011;62526;50.948;6.590;2022-07-29T00:33:58;8.68;;;2.12;;
74170;SDS011;62526;50.948;6.590;2022-07-29T00:36:24;5.32;;;2.03;;
74170;SDS011;62526;50.948;6.590;2022-07-29T00:38:51;6.07;;;2.10;;
74170;SDS011;62526;50.948;6.590;2022-07-29T00:41:18;6.40;;;2.20;;
74170;SDS011;62526;50.948;6.590;2022-07-29T00:43:44;6.07;;;1.87;;
74170;SDS011;62526;50.948;6.590;2022-07-29T00:46:11;10.25;;;2.28;;
74170;SDS011;62526;50.948;6.590;2022-07-29T00:48:37;7.93;;;1.85;;
74170;SDS011;62526;50.948;6.590;2022-07-29T00:51:05;9.77;;;2.03;;
74170;SDS011;62526;50.948;6.590;2022-07-29T00:53:31;4.28;;;1.90;;
74170;SDS011;62526;50.948;6.590;2022-07-29T00:55:58;4.85;;;1.83;;
74170;SDS011;62526;50.948;6.590;2022-07-29T00:58:24;4.82;;;2.08;;
74170;SDS011;62526;50.948;6.590;2022-07-29T01:00:51;6.25;;;2.58;;
74170;SDS011;62526;50.948;6.590;2022-07-29T01:03:18;4.82;;;2.05;;
74170;SDS011;62526;50.948;6.590;2022-07-29T01:05:45;10.05;;;2.20;;
74170;SDS011;62526;50.948;6.590;2022-07-29T01:08:12;11.93;;;2.62;;
74170;SDS011;62526;50.948;6.590;2022-07-29T01:10:39;9.95;;;2.28;;
74170;SDS011;62526;50.948;6.590;2022-07-29T01:13:06;5.53;;;1.92;;
74170;SDS011;62526;50.948;6.590;2022-07-29T01:15:33;10.15;;;2.20;;
74170;SDS011;62526;50.948;6.590;2022-07-29T01:18:01;6.15;;;2.10;;
74170;SDS011;62526;50.948;6.590;2022-07-29T01:23:08;5.93;;;2.00;;
74170;SDS011;62526;50.948;6.590;2022-07-29T01:25:54;8.05;;;2.17;;
74170;SDS011;62526;50.948;6.590;2022-07-29T01:31:15;4.35;;;2.03;;
74170;SDS011;62526;50.948;6.590;2022-07-29T01:33:43;11.73;;;2.45;;
74170;SDS011;62526;50.948;6.590;2022-07-29T01:36:16;9.43;;;2.10;;
74170;SDS011;62526;50.948;6.590;2022-07-29T01:38:41;6.95;;;2.25;;
74170;SDS011;62526;50.948;6.590;2022-07-29T01:41:09;6.72;;;2.20;;
74170;SDS011;62526;50.948;6.590;2022-07-29T01:43:40;8.52;;;2.17;;
74170;SDS011;62526;50.948;6.590;2022-07-29T01:46:07;5.75;;;2.12;;
74170;SDS011;62526;50.948;6.590;2022-07-29T01:48:37;5.68;;;1.90;;
74170;SDS011;62526;50.948;6.590;2022-07-29T01:51:07;7.53;;;2.00;;
74170;SDS011;62526;50.948;6.590;2022-07-29T01:53:37;6.57;;;2.12;;
74170;SDS011;62526;50.948;6.590;2022-07-29T01:56:04;7.55;;;2.75;;
74170;SDS011;62526;50.948;6.590;2022-07-29T01:58:31;10.70;;;2.75;;
74170;SDS011;62526;50.948;6.590;2022-07-29T02:00:58;5.57;;;2.22;;
74170;SDS011;62526;50.948;6.590;2022-07-29T02:03:24;2.83;;;2.10;;
74170;SDS011;62526;50.948;6.590;2022-07-29T02:05:51;9.02;;;2.55;;
74170;SDS011;62526;50.948;6.590;2022-07-29T02:08:19;8.13;;;2.60;;
74170;SDS011;62526;50.948;6.590;2022-07-29T02:10:46;8.13;;;2.28;;
74170;SDS011;62526;50.948;6.590;2022-07-29T02:13:12;7.78;;;2.67;;
74170;SDS011;62526;50.948;6.590;2022-07-29T02:15:39;14.27;;;2.75;;
74170;SDS011;62526;50.948;6.590;2022-07-29T02:18:14;7.60;;;2.42;;
74170;SDS011;62526;50.948;6.590;2022-07-29T02:20:47;12.73;;;2.47;;
74170;SDS011;62526;50.948;6.590;2022-07-29T02:23:14;13.77;;;3.00;;
74170;SDS011;62526;50.948;6.590;2022-07-29T02:25:41;12.55;;;2.65;;
74170;SDS011;62526;50.948;6.590;2022-07-29T02:28:07;7.28;;;2.35;;
74170;SDS011;62526;50.948;6.590;2022-07-29T02:30:36;10.02;;;2.40;;
74170;SDS011;62526;50.948;6.590;2022-07-29T02:33:02;10.80;;;2.75;;
74170;SDS011;62526;50.948;6.590;2022-07-29T02:35:29;8.25;;;2.60;;
74170;SDS011;62526;50.948;6.590;2022-07-29T02:37:56;8.57;;;2.55;;
74170;SDS011;62526;50.948;6.590;2022-07-29T02:40:29;9.82;;;2.40;;
74170;SDS011;62526;50.948;6.590;2022-07-29T02:42:56;10.93;;;2.67;;
74170;SDS011;62526;50.948;6.590;2022-07-29T02:45:23;11.38;;;2.62;;
74170;SDS011;62526;50.948;6.590;2022-07-29T02:47:49;12.68;;;2.78;;
74170;SDS011;62526;50.948;6.590;2022-07-29T02:50:18;10.73;;;2.72;;
74170;SDS011;62526;50.948;6.590;2022-07-29T02:52:44;9.20;;;2.65;;
74170;SDS011;62526;50.948;6.590;2022-07-29T02:55:13;9.07;;;3.00;;
74170;SDS011;62526;50.948;6.590;2022-07-29T02:57:42;4.53;;;2.45;;
74170;SDS011;62526;50.948;6.590;2022-07-29T03:00:08;13.18;;;3.00;;
74170;SDS011;62526;50.948;6.590;2022-07-29T03:02:36;12.65;;;3.20;;
74170;SDS011;62526;50.948;6.590;2022-07-29T03:05:04;16.52;;;3.62;;
74170;SDS011;62526;50.948;6.590;2022-07-29T03:07:30;9.15;;;3.12;;
74170;SDS011;62526;50.948;6.590;2022-07-29T03:09:57;7.25;;;2.90;;
74170;SDS011;62526;50.948;6.590;2022-07-29T03:12:24;8.57;;;3.17;;
74170;SDS011;62526;50.948;6.590;2022-07-29T03:14:50;8.85;;;3.30;;
74170;SDS011;62526;50.948;6.590;2022-07-29T03:17:17;7.35;;;3.22;;
74170;SDS011;62526;50.948;6.590;2022-07-29T03:19:44;12.02;;;2.92;;
74170;SDS011;62526;50.948;6.590;2022-07-29T03:22:10;13.98;;;3.40;;
74170;SDS011;62526;50.948;6.590;2022-07-29T03:24:37;12.02;;;3.00;;
74170;SDS011;62526;50.948;6.590;2022-07-29T03:27:04;6.93;;;2.85;;
74170;SDS011;62526;50.948;6.590;2022-07-29T03:29:31;7.68;;;2.90;;
74170;SDS011;62526;50.948;6.590;2022-07-29T03:31:57;5.62;;;2.62;;
74170;SDS011;62526;50.948;6.590;2022-07-29T03:34:24;6.40;;;2.90;;
74170;SDS011;62526;50.948;6.590;2022-07-29T03:36:51;6.35;;;2.53;;
74170;SDS011;62526;50.948;6.590;2022-07-29T03:39:20;9.27;;;2.70;;
74170;SDS011;62526;50.948;6.590;2022-07-29T03:41:45;6.03;;;2.67;;
74170;SDS011;62526;50.948;6.590;2022-07-29T03:44:11;5.78;;;2.22;;
74170;SDS011;62526;50.948;6.590;2022-07-29T03:46:38;3.95;;;2.30;;
74170;SDS011;62526;50.948;6.590;2022-07-29T03:49:05;4.07;;;2.55;;
74170;SDS011;62526;50.948;6.590;2022-07-29T03:51:31;6.03;;;2.50;;
74170;SDS011;62526;50.948;6.590;2022-07-29T03:53:58;9.60;;;2.50;;
74170;SDS011;62526;50.948;6.590;2022-07-29T03:56:25;7.62;;;2.08;;
74170;SDS011;62526;50.948;6.590;2022-07-29T03:58:51;5.97;;;2.55;;
74170;SDS011;62526;50.948;6.590;2022-07-29T04:01:18;5.78;;;2.35;;
74170;SDS011;62526;50.948;6.590;2022-07-29T04:03:45;7.28;;;2.85;;
74170;SDS011;62526;50.948;6.590;2022-07-29T04:06:11;9.40;;;2.87;;
74170;SDS011;62526;50.948;6.590;2022-07-29T04:08:38;6.30;;;2.90;;
74170;SDS011;62526;50.948;6.590;2022-07-29T04:11:05;9.80;;;3.00;;
74170;SDS011;62526;50.948;6.590;2022-07-29T04:13:31;3.28;;;2.47;;
74170;SDS011;62526;50.948;6.590;2022-07-29T04:15:58;6.40;;;2.55;;
74170;SDS011;62526;50.948;6.590;2022-07-29T04:18:24;5.80;;;2.40;;
74170;SDS011;62526;50.948;6.590;2022-07-29T04:20:51;4.45;;;2.40;;
74170;SDS011;62526;50.948;6.590;2022-07-29T04:23:18;7.20;;;3.30;;
74170;SDS011;62526;50.948;6.590;2022-07-29T04:25:44;6.25;;;2.65;;
74170;SDS011;62526;50.948;6.590;2022-07-29T04:28:11;8.63;;;2.70;;
74170;SDS011;62526;50.948;6.590;2022-07-29T04:30:38;5.18;;;2.25;;
74170;SDS011;62526;50.948;6.590;2022-07-29T04:33:06;4.07;;;2.75;;
74170;SDS011;62526;50.948;6.590;2022-07-29T04:35:33;8.25;;;2.22;;
74170;SDS011;62526;50.948;6.590;2022-07-29T04:38:00;3.87;;;2.47;;
74170;SDS011;62526;50.948;6.590;2022-07-29T04:40:27;7.95;;;2.47;;
74170;SDS011;62526;50.948;6.590;2022-07-29T04:42:54;4.50;;;2.40;;
74170;SDS011;62526;50.948;6.590;2022-07-29T04:45:20;6.18;;;2.45;;
74170;SDS011;62526;50.948;6.590;2022-07-29T04:47:47;4.47;;;2.97;;
74170;SDS011;62526;50.948;6.590;2022-07-29T04:50:14;7.93;;;2.97;;
74170;SDS011;62526;50.948;6.590;2022-07-29T04:52:40;5.03;;;2.60;;
74170;SDS011;62526;50.948;6.590;2022-07-29T04:55:07;5.68;;;2.70;;
74170;SDS011;62526;50.948;6.590;2022-07-29T04:57:34;6.87;;;2.50;;
74170;SDS011;62526;50.948;6.590;2022-07-29T05:00:02;5.00;;;2.45;;
74170;SDS011;62526;50.948;6.590;2022-07-29T05:02:28;7.57;;;2.92;;
74170;SDS011;62526;50.948;6.590;2022-07-29T05:04:55;4.40;;;2.80;;
74170;SDS011;62526;50.948;6.590;2022-07-29T05:07:21;7.47;;;2.60;;
74170;SDS011;62526;50.948;6.590;2022-07-29T05:09:48;7.68;;;2.97;;
74170;SDS011;62526;50.948;6.590;2022-07-29T05:12:15;5.32;;;2.58;;
74170;SDS011;62526;50.948;6.590;2022-07-29T05:14:42;5.22;;;2.40;;
74170;SDS011;62526;50.948;6.590;2022-07-29T05:17:09;10.70;;;2.75;;
74170;SDS011;62526;50.948;6.590;2022-07-29T05:19:35;6.95;;;2.80;;
74170;SDS011;62526;50.948;6.590;2022-07-29T05:22:03;8.32;;;3.33;;
74170;SDS011;62526;50.948;6.590;2022-07-29T05:24:29;8.23;;;3.50;;
74170;SDS011;62526;50.948;6.590;2022-07-29T05:26:56;9.25;;;3.30;;
74170;SDS011;62526;50.948;6.590;2022-07-29T05:29:23;6.70;;;2.70;;
74170;SDS011;62526;50.948;6.590;2022-07-29T05:31:49;6.87;;;3.15;;
74170;SDS011;62526;50.948;6.590;2022-07-29T05:34:16;11.35;;;3.37;;
74170;SDS011;62526;50.948;6.590;2022-07-29T05:36:42;7.05;;;3.15;;
74170;SDS011;62526;50.948;6.590;2022-07-29T05:39:09;7.80;;;3.47;;
74170;SDS011;62526;50.948;6.590;2022-07-29T05:41:36;6.65;;;2.90;;
74170;SDS011;62526;50.948;6.590;2022-07-29T05:44:02;12.00;;;3.15;;
74170;SDS011;62526;50.948;6.590;2022-07-29T05:46:29;17.00;;;3.28;;
74170;SDS011;62526;50.948;6.590;2022-07-29T05:48:56;5.15;;;3.15;;
74170;SDS011;62526;50.948;6.590;2022-07-29T05:51:22;8.77;;;3.17;;
74170;SDS011;62526;50.948;6.590;2022-07-29T05:53:49;7.15;;;2.83;;
74170;SDS011;62526;50.948;6.590;2022-07-29T05:56:15;7.60;;;2.95;;
74170;SDS011;62526;50.948;6.590;2022-07-29T05:58:42;6.80;;;2.62;;
74170;SDS011;62526;50.948;6.590;2022-07-29T06:01:09;9.20;;;3.40;;
74170;SDS011;62526;50.948;6.590;2022-07-29T06:03:36;7.40;;;3.45;;
74170;SDS011;62526;50.948;6.590;2022-07-29T06:06:03;8.48;;;3.40;;
74170;SDS011;62526;50.948;6.590;2022-07-29T06:08:30;9.20;;;3.60;;
74170;SDS011;62526;50.948;6.590;2022-07-29T06:10:57;7.30;;;3.10;;
74170;SDS011;62526;50.948;6.590;2022-07-29T06:13:23;7.28;;;2.85;;
74170;SDS011;62526;50.948;6.590;2022-07-29T06:15:50;7.93;;;2.80;;
74170;SDS011;62526;50.948;6.590;2022-07-29T06:18:17;6.05;;;3.17;;
74170;SDS011;62526;50.948;6.590;2022-07-29T06:20:43;8.73;;;3.35;;
74170;SDS011;62526;50.948;6.590;2022-07-29T06:23:10;9.55;;;3.58;;
74170;SDS011;62526;50.948;6.590;2022-07-29T06:25:37;8.38;;;3.35;;
74170;SDS011;62526;50.948;6.590;2022-07-29T06:28:03;9.10;;;3.85;;
74170;SDS011;62526;50.948;6.590;2022-07-29T06:30:30;7.75;;;3.83;;
74170;SDS011;62526;50.948;6.590;2022-07-29T06:32:56;8.02;;;3.92;;
74170;SDS011;62526;50.948;6.590;2022-07-29T06:35:23;10.45;;;3.67;;
74170;SDS011;62526;50.948;6.590;2022-07-29T06:37:50;13.07;;;4.68;;
74170;SDS011;62526;50.948;6.590;2022-07-29T06:40:17;7.75;;;4.12;;
74170;SDS011;62526;50.948;6.590;2022-07-29T06:42:49;11.12;;;5.00;;
74170;SDS011;62526;50.948;6.590;2022-07-29T06:45:17;8.48;;;4.40;;
74170;SDS011;62526;50.948;6.590;2022-07-29T06:47:44;13.88;;;4.28;;
74170;SDS011;62526;50.948;6.590;2022-07-29T06:50:11;9.40;;;3.75;;
74170;SDS011;62526;50.948;6.590;2022-07-29T06:52:38;9.98;;;3.83;;
74170;SDS011;62526;50.948;6.590;2022-07-29T06:55:05;8.63;;;4.00;;
74170;SDS011;62526;50.948;6.590;2022-07-29T06:57:32;11.32;;;4.37;;
74170;SDS011;62526;50.948;6.590;2022-07-29T06:59:59;13.07;;;4.45;;
74170;SDS011;62526;50.948;6.590;2022-07-29T07:02:25;11.48;;;4.43;;
74170;SDS011;62526;50.948;6.590;2022-07-29T07:04:53;12.10;;;4.70;;
74170;SDS011;62526;50.948;6.590;2022-07-29T07:07:20;14.48;;;4.68;;
74170;SDS011;62526;50.948;6.590;2022-07-29T07:09:46;16.70;;;5.72;;
74170;SDS011;62526;50.948;6.590;2022-07-29T07:12:13;8.52;;;4.57;;
74170;SDS011;62526;50.948;6.590;2022-07-29T07:14:40;13.40;;;5.00;;
74170;SDS011;62526;50.948;6.590;2022-07-29T07:17:07;11.55;;;4.57;;
74170;SDS011;62526;50.948;6.590;2022-07-29T07:19:33;21.05;;;5.20;;
74170;SDS011;62526;50.948;6.590;2022-07-29T07:22:01;12.50;;;5.40;;
74170;SDS011;62526;50.948;6.590;2022-07-29T07:24:27;13.52;;;5.10;;
74170;SDS011;62526;50.948;6.590;2022-07-29T07:26:56;8.38;;;4.50;;
74170;SDS011;62526;50.948;6.590;2022-07-29T07:29:23;9.23;;;4.68;;
74170;SDS011;62526;50.948;6.590;2022-07-29T07:31:51;8.43;;;4.80;;
74170;SDS011;62526;50.948;6.590;2022-07-29T07:34:18;15.00;;;5.37;;
74170;SDS011;62526;50.948;6.590;2022-07-29T07:36:45;11.43;;;5.18;;
74170;SDS011;62526;50.948;6.590;2022-07-29T07:39:13;14.23;;;5.28;;
74170;SDS011;62526;50.948;6.590;2022-07-29T07:41:41;13.20;;;5.57;;
74170;SDS011;62526;50.948;6.590;2022-07-29T07:44:09;18.80;;;5.97;;
74170;SDS011;62526;50.948;6.590;2022-07-29T07:46:37;11.05;;;5.07;;
74170;SDS011;62526;50.948;6.590;2022-07-29T07:49:04;13.77;;;5.05;;
74170;SDS011;62526;50.948;6.590;2022-07-29T07:51:31;10.85;;;5.40;;
74170;SDS011;62526;50.948;6.590;2022-07-29T07:53:58;14.43;;;5.10;;
74170;SDS011;62526;50.948;6.590;2022-07-29T07:56:25;15.10;;;5.18;;
74170;SDS011;62526;50.948;6.590;2022-07-29T07:58:51;11.60;;;4.62;;
74170;SDS011;62526;50.948;6.590;2022-07-29T08:01:18;14.25;;;4.85;;
74170;SDS011;62526;50.948;6.590;2022-07-29T08:03:45;8.95;;;4.60;;
74170;SDS011;62526;50.948;6.590;2022-07-29T08:06:12;11.50;;;4.25;;
74170;SDS011;62526;50.948;6.590;2022-07-29T08:08:38;11.07;;;4.40;;
74170;SDS011;62526;50.948;6.590;2022-07-29T08:11:05;14.13;;;5.18;;
74170;SDS011;62526;50.948;6.590;2022-07-29T08:13:32;10.50;;;4.87;;
74170;SDS011;62526;50.948;6.590;2022-07-29T08:15:59;11.98;;;4.75;;
74170;SDS011;62526;50.948;6.590;2022-07-29T08:18:25;15.85;;;5.18;;
74170;SDS011;62526;50.948;6.590;2022-07-29T08:20:52;12.37;;;4.60;;
74170;SDS011;62526;50.948;6.590;2022-07-29T08:23:19;10.73;;;5.18;;
74170;SDS011;62526;50.948;6.590;2022-07-29T08:25:46;11.15;;;4.75;;
74170;SDS011;62526;50.948;6.590;2022-07-29T08:28:12;7.15;;;4.32;;
74170;SDS011;62526;50.948;6.590;2022-07-29T08:30:40;9.18;;;4.70;;
74170;SDS011;62526;50.948;6.590;2022-07-29T08:33:07;15.68;;;5.12;;
74170;SDS011;62526;50.948;6.590;2022-07-29T08:35:35;10.57;;;4.93;;
74170;SDS011;62526;50.948;6.590;2022-07-29T08:38:02;9.73;;;4.72;;
74170;SDS011;62526;50.948;6.590;2022-07-29T08:40:29;7.53;;;4.70;;
74170;SDS011;62526;50.948;6.590;2022-07-29T08:42:56;8.35;;;4.18;;
74170;SDS011;62526;50.948;6.590;2022-07-29T08:45:24;12.30;;;5.37;;
74170;SDS011;62526;50.948;6.590;2022-07-29T08:47:51;10.98;;;5.45;;
74170;SDS011;62526;50.948;6.590;2022-07-29T08:50:19;15.32;;;5.20;;
74170;SDS011;62526;50.948;6.590;2022-07-29T08:52:46;10.38;;;5.00;;
74170;SDS011;62526;50.948;6.590;2022-07-29T08:55:14;19.20;;;5.60;;
74170;SDS011;62526;50.948;6.590;2022-07-29T08:57:43;13.52;;;4.90;;
74170;SDS011;62526;50.948;6.590;2022-07-29T09:00:10;14.85;;;5.28;;
74170;SDS011;62526;50.948;6.590;2022-07-29T09:02:39;16.08;;;4.78;;
74170;SDS011;62526;50.948;6.590;2022-07-29T09:05:07;11.12;;;4.97;;
74170;SDS011;62526;50.948;6.590;2022-07-29T09:07:38;14.65;;;4.40;;
74170;SDS011;62526;50.948;6.590;2022-07-29T09:10:05;8.65;;;4.32;;
74170;SDS011;62526;50.948;6.590;2022-07-29T09:12:33;8.50;;;4.00;;
74170;SDS011;62526;50.948;6.590;2022-07-29T09:15:02;8.98;;;4.37;;
74170;SDS011;62526;50.948;6.590;2022-07-29T09:20:11;6.62;;;4.35;;
74170;SDS011;62526;50.948;6.590;2022-07-29T09:22:38;16.73;;;4.55;;
74170;SDS011;62526;50.948;6.590;2022-07-29T09:25:05;10.25;;;4.57;;
74170;SDS011;62526;50.948;6.590;2022-07-29T09:27:33;12.15;;;4.37;;
74170;SDS011;62526;50.948;6.590;2022-07-29T09:30:03;16.35;;;5.28;;
74170;SDS011;62526;50.948;6.590;2022-07-29T09:32:29;12.05;;;4.65;;
74170;SDS011;62526;50.948;6.590;2022-07-29T09:37:35;11.73;;;5.37;;
74170;SDS011;62526;50.948;6.590;2022-07-29T09:40:10;13.25;;;5.00;;
74170;SDS011;62526;50.948;6.590;2022-07-29T09:42:29;18.25;;;4.85;;
74170;SDS011;62526;50.948;6.590;2022-07-29T09:44:57;13.57;;;5.15;;
74170;SDS011;62526;50.948;6.590;2022-07-29T09:47:25;11.15;;;4.70;;
74170;SDS011;62526;50.948;6.590;2022-07-29T09:49:53;9.82;;;4.82;;
74170;SDS011;62526;50.948;6.590;2022-07-29T09:52:21;10.32;;;4.70;;
74170;SDS011;62526;50.948;6.590;2022-07-29T09:54:48;13.85;;;4.43;;
74170;SDS011;62526;50.948;6.590;2022-07-29T09:57:24;7.28;;;3.83;;
74170;SDS011;62526;50.948;6.590;2022-07-29T09:59:55;8.77;;;4.57;;
74170;SDS011;62526;50.948;6.590;2022-07-29T10:02:22;11.12;;;4.15;;
74170;SDS011;62526;50.948;6.590;2022-07-29T10:04:49;9.95;;;4.10;;
74170;SDS011;62526;50.948;6.590;2022-07-29T10:07:17;12.27;;;5.10;;
74170;SDS011;62526;50.948;6.590;2022-07-29T10:09:50;9.20;;;4.72;;
74170;SDS011;62526;50.948;6.590;2022-07-29T10:12:17;11.15;;;4.12;;
74170;SDS011;62526;50.948;6.590;2022-07-29T10:14:44;10.15;;;4.47;;
74170;SDS011;62526;50.948;6.590;2022-07-29T10:17:11;9.60;;;3.65;;
74170;SDS011;62526;50.948;6.590;2022-07-29T10:19:39;11.63;;;3.92;;
74170;SDS011;62526;50.948;6.590;2022-07-29T10:22:09;6.15;;;3.65;;
74170;SDS011;62526;50.948;6.590;2022-07-29T10:24:37;6.47;;;3.22;;
74170;SDS011;62526;50.948;6.590;2022-07-29T10:27:03;9.60;;;3.85;;
74170;SDS011;62526;50.948;6.590;2022-07-29T10:29:30;9.50;;;3.70;;
74170;SDS011;62526;50.948;6.590;2022-07-29T10:34:57;7.87;;;4.22;;
74170;SDS011;62526;50.948;6.590;2022-07-29T10:40:09;6.18;;;3.40;;
74170;SDS011;62526;50.948;6.590;2022-07-29T10:42:34;8.98;;;3.20;;
74170;SDS011;62526;50.948;6.590;2022-07-29T10:45:02;7.93;;;3.70;;
74170;SDS011;62526;50.948;6.590;2022-07-29T10:47:27;7.62;;;3.97;;
74170;SDS011;62526;50.948;6.590;2022-07-29T10:49:57;9.95;;;4.35;;
74170;SDS011;62526;50.948;6.590;2022-07-29T10:52:23;6.75;;;3.67;;
74170;SDS011;62526;50.948;6.590;2022-07-29T10:54:50;5.57;;;3.40;;
74170;SDS011;62526;50.948;6.590;2022-07-29T10:57:25;7.47;;;3.37;;
74170;SDS011;62526;50.948;6.590;2022-07-29T11:00:25;5.62;;;3.40;;
74170;SDS011;62526;50.948;6.590;2022-07-29T11:02:41;10.80;;;3.47;;
74170;SDS011;62526;50.948;6.590;2022-07-29T11:05:12;11.25;;;3.53;;
74170;SDS011;62526;50.948;6.590;2022-07-29T11:07:39;6.70;;;3.42;;
74170;SDS011;62526;50.948;6.590;2022-07-29T11:12:52;10.07;;;3.65;;
74170;SDS011;62526;50.948;6.590;2022-07-29T11:15:20;6.57;;;3.17;;
74170;SDS011;62526;50.948;6.590;2022-07-29T11:20:42;5.40;;;2.67;;
74170;SDS011;62526;50.948;6.590;2022-07-29T11:28:57;7.62;;;3.92;;
74170;SDS011;62526;50.948;6.590;2022-07-29T11:31:40;10.32;;;4.10;;
74170;SDS011;62526;50.948;6.590;2022-07-29T11:39:25;8.50;;;3.90;;
74170;SDS011;62526;50.948;6.590;2022-07-29T11:41:52;10.00;;;3.28;;
74170;SDS011;62526;50.948;6.590;2022-07-29T11:44:18;7.50;;;3.87;;
74170;SDS011;62526;50.948;6.590;2022-07-29T11:46:46;12.25;;;3.65;;
74170;SDS011;62526;50.948;6.590;2022-07-29T11:49:13;7.50;;;3.35;;
74170;SDS011;62526;50.948;6.590;2022-07-29T11:51:39;8.23;;;4.22;;
74170;SDS011;62526;50.948;6.590;2022-07-29T11:54:06;9.10;;;3.60;;
74170;SDS011;62526;50.948;6.590;2022-07-29T11:56:33;6.43;;;3.95;;
74170;SDS011;62526;50.948;6.590;2022-07-29T11:59:04;10.95;;;3.60;;
74170;SDS011;62526;50.948;6.590;2022-07-29T12:01:30;6.57;;;3.25;;
74170;SDS011;62526;50.948;6.590;2022-07-29T12:04:03;8.05;;;4.45;;
74170;SDS011;62526;50.948;6.590;2022-07-29T12:06:30;7.68;;;3.58;;
74170;SDS011;62526;50.948;6.590;2022-07-29T12:08:57;5.40;;;2.67;;
74170;SDS011;62526;50.948;6.590;2022-07-29T12:11:23;6.15;;;3.50;;
74170;SDS011;62526;50.948;6.590;2022-07-29T12:13:50;4.62;;;3.78;;
74170;SDS011;62526;50.948;6.590;2022-07-29T12:16:17;8.68;;;3.45;;
74170;SDS011;62526;50.948;6.590;2022-07-29T12:21:22;8.55;;;3.70;;
74170;SDS011;62526;50.948;6.590;2022-07-29T12:23:52;9.13;;;3.47;;
74170;SDS011;62526;50.948;6.590;2022-07-29T12:26:19;8.10;;;3.58;;
74170;SDS011;62526;50.948;6.590;2022-07-29T12:28:46;9.68;;;4.60;;
74170;SDS011;62526;50.948;6.590;2022-07-29T12:31:13;7.65;;;3.45;;
74170;SDS011;62526;50.948;6.590;2022-07-29T12:33:39;5.85;;;4.00;;
74170;SDS011;62526;50.948;6.590;2022-07-29T12:36:06;7.78;;;3.85;;
74170;SDS011;62526;50.948;6.590;2022-07-29T12:38:34;9.50;;;3.25;;
74170;SDS011;62526;50.948;6.590;2022-07-29T12:41:01;6.60;;;3.42;;
74170;SDS011;62526;50.948;6.590;2022-07-29T12:43:27;6.82;;;3.30;;
74170;SDS011;62526;50.948;6.590;2022-07-29T12:45:55;4.55;;;3.30;;
74170;SDS011;62526;50.948;6.590;2022-07-29T12:51:00;8.68;;;3.95;;
74170;SDS011;62526;50.948;6.590;2022-07-29T12:53:27;9.32;;;3.37;;
74170;SDS011;62526;50.948;6.590;2022-07-29T12:55:54;7.47;;;3.62;;
74170;SDS011;62526;50.948;6.590;2022-07-29T12:58:27;8.90;;;3.83;;
74170;SDS011;62526;50.948;6.590;2022-07-29T13:00:59;8.68;;;3.40;;
74170;SDS011;62526;50.948;6.590;2022-07-29T13:03:25;7.15;;;3.78;;
74170;SDS011;62526;50.948;6.590;2022-07-29T13:05:53;8.30;;;3.83;;
74170;SDS011;62526;50.948;6.590;2022-07-29T13:08:19;12.00;;;4.07;;
74170;SDS011;62526;50.948;6.590;2022-07-29T13:10:46;8.20;;;3.78;;
74170;SDS011;62526;50.948;6.590;2022-07-29T13:13:13;8.30;;;3.70;;
74170;SDS011;62526;50.948;6.590;2022-07-29T13:15:41;8.38;;;3.12;;
74170;SDS011;62526;50.948;6.590;2022-07-29T13:18:26;8.80;;;3.83;;
74170;SDS011;62526;50.948;6.590;2022-07-29T13:20:52;13.98;;;3.45;;
74170;SDS011;62526;50.948;6.590;2022-07-29T13:23:19;7.93;;;3.42;;
74170;SDS011;62526;50.948;6.590;2022-07-29T13:25:46;6.70;;;3.45;;
74170;SDS011;62526;50.948;6.590;2022-07-29T13:28:13;6.47;;;3.08;;
74170;SDS011;62526;50.948;6.590;2022-07-29T13:30:40;10.57;;;3.65;;
74170;SDS011;62526;50.948;6.590;2022-07-29T13:33:07;7.22;;;3.00;;
74170;SDS011;62526;50.948;6.590;2022-07-29T13:35:33;6.00;;;3.00;;
74170;SDS011;62526;50.948;6.590;2022-07-29T13:38:00;9.02;;;3.20;;
74170;SDS011;62526;50.948;6.590;2022-07-29T13:40:27;4.53;;;2.95;;
74170;SDS011;62526;50.948;6.590;2022-07-29T13:42:54;6.20;;;3.17;;
74170;SDS011;62526;50.948;6.590;2022-07-29T13:45:21;5.82;;;2.92;;
74170;SDS011;62526;50.948;6.590;2022-07-29T13:50:34;9.30;;;3.37;;
74170;SDS011;62526;50.948;6.590;2022-07-29T13:53:01;7.32;;;2.90;;
74170;SDS011;62526;50.948;6.590;2022-07-29T13:55:27;7.43;;;3.25;;
74170;SDS011;62526;50.948;6.590;2022-07-29T13:57:54;11.05;;;3.10;;
74170;SDS011;62526;50.948;6.590;2022-07-29T14:00:22;7.20;;;3.28;;
74170;SDS011;62526;50.948;6.590;2022-07-29T14:02:49;8.15;;;3.30;;
74170;SDS011;62526;50.948;6.590;2022-07-29T14:05:16;4.45;;;2.80;;
74170;SDS011;62526;50.948;6.590;2022-07-29T14:07:43;5.47;;;2.60;;
74170;SDS011;62526;50.948;6.590;2022-07-29T14:10:09;5.25;;;2.95;;
74170;SDS011;62526;50.948;6.590;2022-07-29T14:12:36;5.78;;;2.70;;
74170;SDS011;62526;50.948;6.590;2022-07-29T14:15:04;4.68;;;2.70;;
74170;SDS011;62526;50.948;6.590;2022-07-29T14:17:31;8.65;;;2.50;;
74170;SDS011;62526;50.948;6.590;2022-07-29T14:19:58;4.65;;;2.47;;
74170;SDS011;62526;50.948;6.590;2022-07-29T14:22:26;4.80;;;2.10;;
74170;SDS011;62526;50.948;6.590;2022-07-29T14:24:55;7.32;;;2.65;;
74170;SDS011;62526;50.948;6.590;2022-07-29T14:27:22;4.95;;;2.20;;
74170;SDS011;62526;50.948;6.590;2022-07-29T14:29:49;7.55;;;2.55;;
74170;SDS011;62526;50.948;6.590;2022-07-29T14:32:15;6.97;;;2.40;;
74170;SDS011;62526;50.948;6.590;2022-07-29T14:34:42;3.85;;;2.40;;
74170;SDS011;62526;50.948;6.590;2022-07-29T14:37:09;5.90;;;2.20;;
74170;SDS011;62526;50.948;6.590;2022-07-29T14:39:37;4.87;;;2.15;;
74170;SDS011;62526;50.948;6.590;2022-07-29T14:42:04;5.62;;;2.20;;
74170;SDS011;62526;50.948;6.590;2022-07-29T14:44:31;4.43;;;2.22;;
74170;SDS011;62526;50.948;6.590;2022-07-29T14:46:59;5.07;;;2.42;;
74170;SDS011;62526;50.948;6.590;2022-07-29T14:49:26;3.05;;;2.05;;
74170;SDS011;62526;50.948;6.590;2022-07-29T14:51:53;3.80;;;1.90;;
74170;SDS011;62526;50.948;6.590;2022-07-29T14:54:20;7.05;;;2.53;;
74170;SDS011;62526;50.948;6.590;2022-07-29T14:56:47;6.53;;;2.30;;
74170;SDS011;62526;50.948;6.590;2022-07-29T14:59:14;5.05;;;2.08;;
74170;SDS011;62526;50.948;6.590;2022-07-29T15:01:41;5.47;;;2.47;;
74170;SDS011;62526;50.948;6.590;2022-07-29T15:04:08;4.03;;;1.95;;
74170;SDS011;62526;50.948;6.590;2022-07-29T15:06:35;9.70;;;2.25;;
74170;SDS011;62526;50.948;6.590;2022-07-29T15:09:02;4.25;;;2.20;;
74170;SDS011;62526;50.948;6.590;2022-07-29T15:11:28;4.20;;;1.83;;
74170;SDS011;62526;50.948;6.590;2022-07-29T15:13:55;2.75;;;1.87;;
74170;SDS011;62526;50.948;6.590;2022-07-29T15:16:22;3.20;;;1.90;;
74170;SDS011;62526;50.948;6.590;2022-07-29T15:18:49;5.70;;;2.45;;
74170;SDS011;62526;50.948;6.590;2022-07-29T15:21:15;3.08;;;2.25;;
74170;SDS011;62526;50.948;6.590;2022-07-29T15:23:42;3.65;;;2.17;;
74170;SDS011;62526;50.948;6.590;2022-07-29T15:26:09;4.68;;;2.37;;